sensor_id;sensor_type;location;lat;lon;timestamp;pressure;altitude;pressure_sealevel;temperature;humidity
41947;BME280;27638;42.184;24.848;2023-03-01T00:01:58;100679.31;;;6.76;100.00
41947;BME280;27638;42.184;24.848;2023-03-01T00:04:24;100669.09;;;7.06;100.00
41947;BME280;27638;42.184;24.848;2023-03-01T00:06:49;100665.81;;;6.80;100.00
41947;BME280;27638;42.184;24.848;2023-03-01T00:09:15;100672.38;;;6.75;100.00
41947;BME280;27638;42.184;24.848;2023-03-01T00:11:40;100670.16;;;6.92;100.00
41947;BME280;27638;42.184;24.848;2023-03-01T00:14:06;100671.75;;;7.06;100.00
41947;BME280;27638;42.184;24.848;2023-03-01T00:16:40;100665.78;;;7.15;100.00
41947;BME280;27638;42.184;24.848;2023-03-01T00:19:07;100676.13;;;7.41;100.00
41947;BME280;27638;42.184;24.848;2023-03-01T00:21:32;100678.03;;;7.50;100.00
41947;BME280;27638;42.184;24.848;2023-03-01T00:24:01;100679.47;;;7.43;100.00
41947;BME280;27638;42.184;24.848;2023-03-01T00:26:26;100674.94;;;7.56;100.00
41947;BME280;27638;42.184;24.848;2023-03-01T00:28:53;100675.41;;;7.50;100.00
41947;BME280;27638;42.184;24.848;2023-03-01T00:31:22;100667.97;;;7.32;100.00
41947;BME280;27638;42.184;24.848;2023-03-01T00:33:48;100672.78;;;7.50;100.00
41947;BME280;27638;42.184;24.848;2023-03-01T00:36:15;100673.47;;;7.63;100.00
41947;BME280;27638;42.184;24.848;2023-03-01T00:38:42;100674.19;;;7.65;100.00
41947;BME280;27638;42.184;24.848;2023-03-01T00:41:14;100670.59;;;7.77;100.00
41947;BME280;27638;42.184;24.848;2023-03-01T00:43:40;100675.03;;;7.54;100.00
41947;BME280;27638;42.184;24.848;2023-03-01T00:46:11;100662.72;;;7.55;100.00
41947;BME280;27638;42.184;24.848;2023-03-01T00:48:37;100662.94;;;7.41;100.00
41947;BME280;27638;42.184;24.848;2023-03-01T00:51:18;100657.69;;;7.41;100.00
41947;BME280;27638;42.184;24.848;2023-03-01T00:53:45;100648.22;;;7.49;100.00
41947;BME280;27638;42.184;24.848;2023-03-01T00:56:12;100641.94;;;7.28;100.00
41947;BME280;27638;42.184;24.848;2023-03-01T00:58:38;100641.75;;;7.31;100.00
41947;BME280;27638;42.184;24.848;2023-03-01T01:01:08;100643.16;;;7.24;100.00
41947;BME280;27638;42.184;24.848;2023-03-01T01:04:07;100641.72;;;7.20;100.00
41947;BME280;27638;42.184;24.848;2023-03-01T01:06:36;100645.41;;;7.17;100.00
41947;BME280;27638;42.184;24.848;2023-03-01T01:09:04;100637.75;;;7.03;100.00
41947;BME280;27638;42.184;24.848;2023-03-01T01:11:30;100629.09;;;6.90;100.00
41947;BME280;27638;42.184;24.848;2023-03-01T01:13:56;100624.09;;;6.98;100.00
41947;BME280;27638;42.184;24.848;2023-03-01T01:16:24;100626.97;;;7.06;100.00
41947;BME280;27638;42.184;24.848;2023-03-01T01:18:50;100631.63;;;7.02;100.00
41947;BME280;27638;42.184;24.848;2023-03-01T01:21:22;100629.84;;;7.03;100.00
41947;BME280;27638;42.184;24.848;2023-03-01T01:23:48;100624.56;;;7.03;100.00
41947;BME280;27638;42.184;24.848;2023-03-01T01:26:17;100624.19;;;6.85;100.00
41947;BME280;27638;42.184;24.848;2023-03-01T01:28:43;100628.75;;;6.94;100.00
41947;BME280;27638;42.184;24.848;2023-03-01T01:31:09;100633.19;;;6.94;100.00
41947;BME280;27638;42.184;24.848;2023-03-01T01:33:34;100630.78;;;7.02;100.00
41947;BME280;27638;42.184;24.848;2023-03-01T01:36:00;100631.66;;;7.14;100.00
41947;BME280;27638;42.184;24.848;2023-03-01T01:38:25;100632.09;;;6.96;100.00
41947;BME280;27638;42.184;24.848;2023-03-01T01:40:51;100620.09;;;6.81;100.00
41947;BME280;27638;42.184;24.848;2023-03-01T01:45:47;100619.75;;;6.86;100.00
41947;BME280;27638;42.184;24.848;2023-03-01T01:48:18;100620.69;;;6.73;100.00
41947;BME280;27638;42.184;24.848;2023-03-01T01:50:44;100629.53;;;6.72;100.00
41947;BME280;27638;42.184;24.848;2023-03-01T01:53:13;100623.31;;;6.73;100.00
41947;BME280;27638;42.184;24.848;2023-03-01T01:55:43;100624.78;;;6.89;100.00
41947;BME280;27638;42.184;24.848;2023-03-01T01:58:12;100625.88;;;6.86;100.00
41947;BME280;27638;42.184;24.848;2023-03-01T02:00:40;100632.16;;;6.72;100.00
41947;BME280;27638;42.184;24.848;2023-03-01T02:03:27;100623.44;;;6.72;100.00
41947;BME280;27638;42.184;24.848;2023-03-01T02:06:04;100622.69;;;6.59;100.00
41947;BME280;27638;42.184;24.848;2023-03-01T02:08:34;100624.72;;;6.55;100.00
41947;BME280;27638;42.184;24.848;2023-03-01T02:11:01;100627.06;;;6.47;100.00
41947;BME280;27638;42.184;24.848;2023-03-01T02:13:30;100623.00;;;6.43;100.00
41947;BME280;27638;42.184;24.848;2023-03-01T02:15:56;100618.56;;;6.44;100.00
41947;BME280;27638;42.184;24.848;2023-03-01T02:18:23;100615.81;;;6.45;100.00
41947;BME280;27638;42.184;24.848;2023-03-01T02:26:48;100613.09;;;6.47;100.00
41947;BME280;27638;42.184;24.848;2023-03-01T02:29:15;100606.28;;;6.55;100.00
41947;BME280;27638;42.184;24.848;2023-03-01T02:31:40;100610.34;;;6.48;100.00
41947;BME280;27638;42.184;24.848;2023-03-01T02:34:18;100613.53;;;6.40;100.00
41947;BME280;27638;42.184;24.848;2023-03-01T02:37:12;100614.19;;;6.55;100.00
41947;BME280;27638;42.184;24.848;2023-03-01T02:39:44;100610.91;;;6.40;100.00
41947;BME280;27638;42.184;24.848;2023-03-01T02:42:14;100609.13;;;6.41;100.00
41947;BME280;27638;42.184;24.848;2023-03-01T02:44:42;100616.56;;;6.47;100.00
41947;BME280;27638;42.184;24.848;2023-03-01T02:47:07;100616.78;;;6.44;100.00
41947;BME280;27638;42.184;24.848;2023-03-01T02:49:35;100610.59;;;6.56;100.00
41947;BME280;27638;42.184;24.848;2023-03-01T02:57:27;100613.75;;;6.37;100.00
41947;BME280;27638;42.184;24.848;2023-03-01T02:59:55;100611.47;;;6.33;100.00
41947;BME280;27638;42.184;24.848;2023-03-01T03:02:26;100606.81;;;6.36;100.00
41947;BME280;27638;42.184;24.848;2023-03-01T03:05:10;100600.72;;;6.36;100.00
41947;BME280;27638;42.184;24.848;2023-03-01T03:07:38;100605.16;;;6.35;100.00
41947;BME280;27638;42.184;24.848;2023-03-01T03:10:06;100614.97;;;6.21;100.00
41947;BME280;27638;42.184;24.848;2023-03-01T03:12:32;100612.94;;;6.37;100.00
41947;BME280;27638;42.184;24.848;2023-03-01T03:14:57;100608.00;;;6.32;100.00
41947;BME280;27638;42.184;24.848;2023-03-01T03:17:24;100601.72;;;6.22;100.00
41947;BME280;27638;42.184;24.848;2023-03-01T03:19:50;100605.16;;;6.35;100.00
41947;BME280;27638;42.184;24.848;2023-03-01T03:22:15;100608.63;;;6.36;100.00
41947;BME280;27638;42.184;24.848;2023-03-01T03:24:41;100603.69;;;6.31;100.00
41947;BME280;27638;42.184;24.848;2023-03-01T03:27:06;100609.94;;;6.18;100.00
41947;BME280;27638;42.184;24.848;2023-03-01T03:29:32;100610.50;;;6.10;100.00
41947;BME280;27638;42.184;24.848;2023-03-01T03:31:58;100604.81;;;6.16;100.00
41947;BME280;27638;42.184;24.848;2023-03-01T03:34:24;100608.28;;;6.17;100.00
41947;BME280;27638;42.184;24.848;2023-03-01T03:36:53;100606.25;;;6.20;100.00
41947;BME280;27638;42.184;24.848;2023-03-01T03:39:23;100610.75;;;6.31;100.00
41947;BME280;27638;42.184;24.848;2023-03-01T03:41:48;100606.03;;;6.23;100.00
41947;BME280;27638;42.184;24.848;2023-03-01T03:44:14;100609.56;;;6.35;100.00
41947;BME280;27638;42.184;24.848;2023-03-01T03:46:39;100616.97;;;6.30;100.00
41947;BME280;27638;42.184;24.848;2023-03-01T03:49:05;100610.97;;;6.28;100.00
41947;BME280;27638;42.184;24.848;2023-03-01T03:51:30;100602.91;;;6.18;100.00
41947;BME280;27638;42.184;24.848;2023-03-01T03:53:56;100590.53;;;6.07;100.00
41947;BME280;27638;42.184;24.848;2023-03-01T03:56:21;100590.31;;;6.11;100.00
41947;BME280;27638;42.184;24.848;2023-03-01T03:58:51;100583.38;;;6.09;100.00
41947;BME280;27638;42.184;24.848;2023-03-01T04:01:17;100588.25;;;6.03;100.00
41947;BME280;27638;42.184;24.848;2023-03-01T04:03:42;100597.59;;;6.07;100.00
41947;BME280;27638;42.184;24.848;2023-03-01T04:06:13;100595.41;;;6.01;100.00
41947;BME280;27638;42.184;24.848;2023-03-01T04:08:39;100605.09;;;6.00;100.00
41947;BME280;27638;42.184;24.848;2023-03-01T04:11:05;100603.63;;;6.20;100.00
41947;BME280;27638;42.184;24.848;2023-03-01T04:13:49;100603.59;;;6.33;100.00
41947;BME280;27638;42.184;24.848;2023-03-01T04:16:16;100587.72;;;6.22;100.00
41947;BME280;27638;42.184;24.848;2023-03-01T04:18:42;100589.59;;;6.32;100.00
41947;BME280;27638;42.184;24.848;2023-03-01T04:21:08;100594.66;;;6.23;100.00
41947;BME280;27638;42.184;24.848;2023-03-01T04:23:33;100599.31;;;6.19;100.00
41947;BME280;27638;42.184;24.848;2023-03-01T04:26:00;100602.69;;;6.21;100.00
41947;BME280;27638;42.184;24.848;2023-03-01T04:28:31;100611.41;;;6.46;100.00
41947;BME280;27638;42.184;24.848;2023-03-01T04:31:10;100603.97;;;6.39;100.00
41947;BME280;27638;42.184;24.848;2023-03-01T04:33:40;100603.19;;;6.26;100.00
41947;BME280;27638;42.184;24.848;2023-03-01T04:36:07;100608.34;;;6.28;100.00
41947;BME280;27638;42.184;24.848;2023-03-01T04:38:34;100602.38;;;6.26;100.00
41947;BME280;27638;42.184;24.848;2023-03-01T04:41:01;100601.31;;;6.28;100.00
41947;BME280;27638;42.184;24.848;2023-03-01T04:43:28;100607.63;;;6.26;100.00
41947;BME280;27638;42.184;24.848;2023-03-01T04:45:54;100614.94;;;6.33;100.00
41947;BME280;27638;42.184;24.848;2023-03-01T04:48:19;100619.38;;;6.33;100.00
41947;BME280;27638;42.184;24.848;2023-03-01T04:50:45;100613.09;;;6.47;100.00
41947;BME280;27638;42.184;24.848;2023-03-01T04:53:10;100621.03;;;6.69;100.00
41947;BME280;27638;42.184;24.848;2023-03-01T04:55:35;100615.91;;;6.67;100.00
41947;BME280;27638;42.184;24.848;2023-03-01T04:58:01;100619.34;;;6.57;100.00
41947;BME280;27638;42.184;24.848;2023-03-01T05:00:26;100614.75;;;6.48;100.00
41947;BME280;27638;42.184;24.848;2023-03-01T05:03:00;100616.22;;;6.52;100.00
41947;BME280;27638;42.184;24.848;2023-03-01T05:05:28;100613.75;;;6.37;100.00
41947;BME280;27638;42.184;24.848;2023-03-01T05:07:57;100610.28;;;6.37;100.00
41947;BME280;27638;42.184;24.848;2023-03-01T05:10:24;100606.88;;;6.24;100.00
41947;BME280;27638;42.184;24.848;2023-03-01T05:12:50;100608.72;;;6.34;100.00
41947;BME280;27638;42.184;24.848;2023-03-01T05:15:17;100607.09;;;6.45;100.00
41947;BME280;27638;42.184;24.848;2023-03-01T05:17:43;100613.69;;;6.50;100.00
41947;BME280;27638;42.184;24.848;2023-03-01T05:20:10;100603.63;;;6.44;100.00
41947;BME280;27638;42.184;24.848;2023-03-01T05:22:36;100613.09;;;6.47;100.00
41947;BME280;27638;42.184;24.848;2023-03-01T05:25:03;100608.91;;;6.55;100.00
41947;BME280;27638;42.184;24.848;2023-03-01T05:27:28;100607.47;;;6.51;100.00
41947;BME280;27638;42.184;24.848;2023-03-01T05:29:55;100602.31;;;6.50;100.00
41947;BME280;27638;42.184;24.848;2023-03-01T05:32:20;100605.31;;;6.45;100.00
41947;BME280;27638;42.184;24.848;2023-03-01T05:34:46;100612.38;;;6.56;100.00
41947;BME280;27638;42.184;24.848;2023-03-01T05:37:12;100610.91;;;6.40;100.00
41947;BME280;27638;42.184;24.848;2023-03-01T05:39:38;100616.34;;;6.61;100.00
41947;BME280;27638;42.184;24.848;2023-03-01T05:42:04;100618.94;;;6.50;100.00
41947;BME280;27638;42.184;24.848;2023-03-01T05:44:29;100620.41;;;6.54;100.00
41947;BME280;27638;42.184;24.848;2023-03-01T05:46:55;100623.75;;;6.56;100.00
41947;BME280;27638;42.184;24.848;2023-03-01T05:49:22;100619.88;;;6.38;100.00
41947;BME280;27638;42.184;24.848;2023-03-01T05:51:50;100626.75;;;6.28;100.00
41947;BME280;27638;42.184;24.848;2023-03-01T05:54:16;100617.47;;;6.35;100.00
41947;BME280;27638;42.184;24.848;2023-03-01T05:56:41;100632.56;;;6.44;100.00
41947;BME280;27638;42.184;24.848;2023-03-01T05:59:07;100638.78;;;6.43;100.00
41947;BME280;27638;42.184;24.848;2023-03-01T06:01:33;100635.53;;;6.39;100.00
41947;BME280;27638;42.184;24.848;2023-03-01T06:03:59;100639.03;;;6.51;100.00
41947;BME280;27638;42.184;24.848;2023-03-01T06:06:25;100645.41;;;6.60;100.00
41947;BME280;27638;42.184;24.848;2023-03-01T06:08:51;100644.25;;;6.75;100.00
41947;BME280;27638;42.184;24.848;2023-03-01T06:11:17;100648.22;;;6.81;100.00
41947;BME280;27638;42.184;24.848;2023-03-01T06:13:43;100646.78;;;6.77;100.00
41947;BME280;27638;42.184;24.848;2023-03-01T06:16:09;100639.94;;;6.74;100.00
41947;BME280;27638;42.184;24.848;2023-03-01T06:18:35;100642.97;;;6.81;100.00
41947;BME280;27638;42.184;24.848;2023-03-01T06:21:01;100643.19;;;6.78;100.00
41947;BME280;27638;42.184;24.848;2023-03-01T06:23:26;100641.03;;;6.71;100.00
41947;BME280;27638;42.184;24.848;2023-03-01T06:25:52;100650.41;;;6.87;100.00
41947;BME280;27638;42.184;24.848;2023-03-01T06:28:18;100645.34;;;6.72;100.00
41947;BME280;27638;42.184;24.848;2023-03-01T06:30:43;100645.81;;;6.78;100.00
41947;BME280;27638;42.184;24.848;2023-03-01T06:33:09;100647.59;;;6.66;100.00
41947;BME280;27638;42.184;24.848;2023-03-01T06:35:34;100638.78;;;6.43;100.00
41947;BME280;27638;42.184;24.848;2023-03-01T06:38:01;100645.72;;;6.44;100.00
41947;BME280;27638;42.184;24.848;2023-03-01T06:40:27;100643.84;;;6.57;100.00
41947;BME280;27638;42.184;24.848;2023-03-01T06:42:53;100643.34;;;6.52;100.00
41947;BME280;27638;42.184;24.848;2023-03-01T06:45:20;100641.88;;;6.72;100.00
41947;BME280;27638;42.184;24.848;2023-03-01T06:47:47;100646.41;;;6.70;100.00
41947;BME280;27638;42.184;24.848;2023-03-01T06:50:14;100646.00;;;6.52;100.00
41947;BME280;27638;42.184;24.848;2023-03-01T06:52:39;100646.59;;;6.56;100.00
41947;BME280;27638;42.184;24.848;2023-03-01T06:55:05;100645.91;;;6.65;100.00
41947;BME280;27638;42.184;24.848;2023-03-01T06:57:31;100644.13;;;6.65;100.00
41947;BME280;27638;42.184;24.848;2023-03-01T06:59:56;100646.75;;;6.65;100.00
41947;BME280;27638;42.184;24.848;2023-03-01T07:02:22;100655.44;;;6.55;100.00
41947;BME280;27638;42.184;24.848;2023-03-01T07:04:51;100654.25;;;6.59;100.00
41947;BME280;27638;42.184;24.848;2023-03-01T07:07:17;100651.75;;;6.57;100.00
41947;BME280;27638;42.184;24.848;2023-03-01T07:09:44;100650.41;;;6.52;100.00
41947;BME280;27638;42.184;24.848;2023-03-01T07:12:10;100644.69;;;6.58;100.00
41947;BME280;27638;42.184;24.848;2023-03-01T07:14:35;100649.69;;;6.50;100.00
41947;BME280;27638;42.184;24.848;2023-03-01T07:17:01;100648.16;;;6.58;100.00
41947;BME280;27638;42.184;24.848;2023-03-01T07:19:26;100638.00;;;6.65;100.00
41947;BME280;27638;42.184;24.848;2023-03-01T07:21:52;100650.69;;;6.60;100.00
41947;BME280;27638;42.184;24.848;2023-03-01T07:24:17;100651.53;;;6.60;100.00
41947;BME280;27638;42.184;24.848;2023-03-01T07:26:43;100651.03;;;6.55;100.00
41947;BME280;27638;42.184;24.848;2023-03-01T07:29:09;100649.50;;;6.64;100.00
41947;BME280;27638;42.184;24.848;2023-03-01T07:31:35;100654.41;;;6.68;100.00
41947;BME280;27638;42.184;24.848;2023-03-01T07:34:02;100646.97;;;6.62;100.00
41947;BME280;27638;42.184;24.848;2023-03-01T07:36:28;100649.22;;;6.56;100.00
41947;BME280;27638;42.184;24.848;2023-03-01T07:38:53;100640.53;;;6.66;100.00
41947;BME280;27638;42.184;24.848;2023-03-01T07:41:21;100642.47;;;6.76;100.00
41947;BME280;27638;42.184;24.848;2023-03-01T07:43:46;100636.72;;;6.70;100.00
41947;BME280;27638;42.184;24.848;2023-03-01T07:46:12;100632.28;;;6.71;100.00
41947;BME280;27638;42.184;24.848;2023-03-01T07:48:38;100637.19;;;6.64;100.00
41947;BME280;27638;42.184;24.848;2023-03-01T07:51:04;100637.78;;;6.68;100.00
41947;BME280;27638;42.184;24.848;2023-03-01T07:53:30;100632.63;;;6.66;100.00
41947;BME280;27638;42.184;24.848;2023-03-01T07:56:01;100631.09;;;6.75;100.00
41947;BME280;27638;42.184;24.848;2023-03-01T07:58:27;100639.00;;;6.75;100.00
41947;BME280;27638;42.184;24.848;2023-03-01T08:00:52;100630.84;;;6.67;100.00
41947;BME280;27638;42.184;24.848;2023-03-01T08:03:18;100631.56;;;6.69;100.00
41947;BME280;27638;42.184;24.848;2023-03-01T08:05:43;100630.38;;;6.73;100.00
41947;BME280;27638;42.184;24.848;2023-03-01T08:08:09;100630.06;;;6.89;100.00
41947;BME280;27638;42.184;24.848;2023-03-01T08:10:36;100629.34;;;6.87;100.00
41947;BME280;27638;42.184;24.848;2023-03-01T08:13:01;100638.53;;;6.81;100.00
41947;BME280;27638;42.184;24.848;2023-03-01T08:15:27;100637.59;;;6.82;100.00
41947;BME280;27638;42.184;24.848;2023-03-01T08:17:52;100634.69;;;6.74;100.00
41947;BME280;27638;42.184;24.848;2023-03-01T08:20:18;100633.16;;;6.83;100.00
41947;BME280;27638;42.184;24.848;2023-03-01T08:22:43;100622.47;;;6.73;100.00
41947;BME280;27638;42.184;24.848;2023-03-01T08:25:09;100623.44;;;6.72;100.00
41947;BME280;27638;42.184;24.848;2023-03-01T08:27:34;100626.94;;;6.84;100.00
41947;BME280;27638;42.184;24.848;2023-03-01T08:30:00;100633.38;;;6.80;100.00
41947;BME280;27638;42.184;24.848;2023-03-01T08:32:25;100636.84;;;6.80;100.00
41947;BME280;27638;42.184;24.848;2023-03-01T08:34:51;100634.22;;;6.80;100.00
41947;BME280;27638;42.184;24.848;2023-03-01T08:37:16;100623.84;;;6.90;100.00
41947;BME280;27638;42.184;24.848;2023-03-01T08:39:42;100627.16;;;6.81;100.00
41947;BME280;27638;42.184;24.848;2023-03-01T08:42:07;100628.84;;;6.82;100.00
41947;BME280;27638;42.184;24.848;2023-03-01T08:44:33;100621.41;;;6.76;100.00
41947;BME280;27638;42.184;24.848;2023-03-01T08:47:00;100623.91;;;6.66;100.00
41947;BME280;27638;42.184;24.848;2023-03-01T08:49:27;100627.78;;;6.84;100.00
41947;BME280;27638;42.184;24.848;2023-03-01T08:51:52;100636.59;;;6.72;100.00
41947;BME280;27638;42.184;24.848;2023-03-01T08:54:21;100631.34;;;6.72;100.00
41947;BME280;27638;42.184;24.848;2023-03-01T08:56:47;100631.69;;;6.67;100.00
41947;BME280;27638;42.184;24.848;2023-03-01T08:59:17;100623.66;;;6.69;100.00
41947;BME280;27638;42.184;24.848;2023-03-01T09:01:43;100630.97;;;6.65;100.00
41947;BME280;27638;42.184;24.848;2023-03-01T09:04:09;100627.75;;;6.73;100.00
41947;BME280;27638;42.184;24.848;2023-03-01T09:06:36;100628.47;;;6.75;100.00
41947;BME280;27638;42.184;24.848;2023-03-01T09:09:04;100621.66;;;6.84;100.00
41947;BME280;27638;42.184;24.848;2023-03-01T09:11:30;100623.94;;;6.88;100.00
41947;BME280;27638;42.184;24.848;2023-03-01T09:13:55;100625.50;;;6.91;100.00
41947;BME280;27638;42.184;24.848;2023-03-01T09:16:22;100626.72;;;6.98;100.00
41947;BME280;27638;42.184;24.848;2023-03-01T09:18:52;100624.56;;;6.92;100.00
41947;BME280;27638;42.184;24.848;2023-03-01T09:21:19;100623.13;;;6.99;100.00
41947;BME280;27638;42.184;24.848;2023-03-01T09:23:47;100626.50;;;7.12;100.00
41947;BME280;27638;42.184;24.848;2023-03-01T09:26:18;100635.13;;;7.14;100.00
41947;BME280;27638;42.184;24.848;2023-03-01T09:28:47;100628.53;;;7.09;100.00
41947;BME280;27638;42.184;24.848;2023-03-01T09:31:13;100633.56;;;7.23;100.00
41947;BME280;27638;42.184;24.848;2023-03-01T09:33:40;100635.13;;;7.14;100.00
41947;BME280;27638;42.184;24.848;2023-03-01T09:36:10;100624.47;;;7.16;100.00
41947;BME280;27638;42.184;24.848;2023-03-01T09:38:36;100625.31;;;7.16;100.00
41947;BME280;27638;42.184;24.848;2023-03-01T09:41:01;100615.94;;;7.01;100.00
41947;BME280;27638;42.184;24.848;2023-03-01T09:43:52;100612.47;;;7.00;100.00
41947;BME280;27638;42.184;24.848;2023-03-01T09:46:22;100619.31;;;7.03;100.00
41947;BME280;27638;42.184;24.848;2023-03-01T09:49:09;100613.56;;;7.09;100.00
41947;BME280;27638;42.184;24.848;2023-03-01T09:51:36;100611.41;;;7.25;100.00
41947;BME280;27638;42.184;24.848;2023-03-01T09:54:03;100600.91;;;7.36;100.00
41947;BME280;27638;42.184;24.848;2023-03-01T09:56:37;100608.91;;;7.24;100.00
41947;BME280;27638;42.184;24.848;2023-03-01T10:02:48;100606.88;;;7.16;100.00
41947;BME280;27638;42.184;24.848;2023-03-01T10:04:54;100590.59;;;7.22;100.00
41947;BME280;27638;42.184;24.848;2023-03-01T10:10:21;100591.06;;;7.16;100.00
41947;BME280;27638;42.184;24.848;2023-03-01T10:12:49;100597.88;;;7.19;100.00
41947;BME280;27638;42.184;24.848;2023-03-01T10:15:25;100591.78;;;7.18;100.00
41947;BME280;27638;42.184;24.848;2023-03-01T10:18:06;100587.13;;;7.11;100.00
41947;BME280;27638;42.184;24.848;2023-03-01T10:23:10;100585.19;;;7.24;100.00
41947;BME280;27638;42.184;24.848;2023-03-01T10:25:42;100589.88;;;7.09;100.00
41947;BME280;27638;42.184;24.848;2023-03-01T10:30:41;100583.28;;;7.03;100.00
41947;BME280;27638;42.184;24.848;2023-03-01T10:33:25;100577.81;;;7.29;100.00
41947;BME280;27638;42.184;24.848;2023-03-01T10:35:51;100580.19;;;7.32;100.00
41947;BME280;27638;42.184;24.848;2023-03-01T10:38:18;100578.25;;;7.12;100.00
41947;BME280;27638;42.184;24.848;2023-03-01T10:40:58;100580.41;;;7.07;100.00
41947;BME280;27638;42.184;24.848;2023-03-01T10:46:25;100576.94;;;7.17;100.00
41947;BME280;27638;42.184;24.848;2023-03-01T10:49:19;100574.19;;;7.19;100.00
41947;BME280;27638;42.184;24.848;2023-03-01T10:51:47;100565.69;;;7.15;100.00
41947;BME280;27638;42.184;24.848;2023-03-01T10:54:31;100571.78;;;7.27;100.00
41947;BME280;27638;42.184;24.848;2023-03-01T10:56:59;100564.38;;;7.10;100.00
41947;BME280;27638;42.184;24.848;2023-03-01T10:59:36;100565.22;;;7.10;100.00
41947;BME280;27638;42.184;24.848;2023-03-01T11:02:25;100567.97;;;7.20;100.00
41947;BME280;27638;42.184;24.848;2023-03-01T11:07:50;100564.38;;;7.43;100.00
41947;BME280;27638;42.184;24.848;2023-03-01T11:10:25;100554.78;;;7.42;100.00
41947;BME280;27638;42.184;24.848;2023-03-01T11:12:52;100551.66;;;7.48;100.00
41947;BME280;27638;42.184;24.848;2023-03-01T11:15:26;100539.47;;;7.36;100.00
41947;BME280;27638;42.184;24.848;2023-03-01T11:17:54;100541.00;;;7.50;100.00
41947;BME280;27638;42.184;24.848;2023-03-01T11:20:31;100529.63;;;7.49;100.00
41947;BME280;27638;42.184;24.848;2023-03-01T11:23:18;100530.13;;;7.32;100.00
41947;BME280;27638;42.184;24.848;2023-03-01T11:28:14;100531.78;;;7.44;100.00
41947;BME280;27638;42.184;24.848;2023-03-01T11:34:23;100527.97;;;7.37;100.00
41947;BME280;27638;42.184;24.848;2023-03-01T11:38:53;100515.03;;;7.45;100.00
41947;BME280;27638;42.184;24.848;2023-03-01T11:41:31;100504.31;;;7.58;100.00
41947;BME280;27638;42.184;24.848;2023-03-01T11:44:10;100508.19;;;7.54;100.00
41947;BME280;27638;42.184;24.848;2023-03-01T11:47:32;100506.50;;;7.53;100.00
41947;BME280;27638;42.184;24.848;2023-03-01T12:04:43;100493.84;;;7.13;100.00
41947;BME280;27638;42.184;24.848;2023-03-01T12:07:01;100494.81;;;7.23;100.00
41947;BME280;27638;42.184;24.848;2023-03-01T12:09:45;100492.16;;;7.46;100.00
41947;BME280;27638;42.184;24.848;2023-03-01T12:18:10;100491.22;;;7.35;100.00
41947;BME280;27638;42.184;24.848;2023-03-01T12:23:35;100485.81;;;7.37;100.00
41947;BME280;27638;42.184;24.848;2023-03-01T12:26:06;100487.75;;;7.35;100.00
41947;BME280;27638;42.184;24.848;2023-03-01T12:50:54;100469.16;;;7.25;100.00
41947;BME280;27638;42.184;24.848;2023-03-01T12:53:29;100471.81;;;7.25;100.00
41947;BME280;27638;42.184;24.848;2023-03-01T12:56:10;100462.47;;;7.32;100.00
41947;BME280;27638;42.184;24.848;2023-03-01T12:58:55;100465.34;;;7.18;100.00
41947;BME280;27638;42.184;24.848;2023-03-01T13:01:35;100466.22;;;7.08;100.00
41947;BME280;27638;42.184;24.848;2023-03-01T13:04:07;100469.69;;;7.08;100.00
41947;BME280;27638;42.184;24.848;2023-03-01T13:09:25;100462.38;;;7.12;100.00
41947;BME280;27638;42.184;24.848;2023-03-01T13:11:55;100465.47;;;7.17;100.00
41947;BME280;27638;42.184;24.848;2023-03-01T13:16:47;100472.56;;;7.05;100.00
41947;BME280;27638;42.184;24.848;2023-03-01T13:19:22;100471.94;;;7.13;100.00
41947;BME280;27638;42.184;24.848;2023-03-01T13:21:48;100468.00;;;7.18;100.00
41947;BME280;27638;42.184;24.848;2023-03-01T13:24:40;100468.72;;;7.09;100.00
41947;BME280;27638;42.184;24.848;2023-03-01T13:29:49;100462.59;;;7.20;100.00
41947;BME280;27638;42.184;24.848;2023-03-01T13:32:23;100462.09;;;7.26;100.00
41947;BME280;27638;42.184;24.848;2023-03-01T13:34:58;100470.00;;;7.26;100.00
41947;BME280;27638;42.184;24.848;2023-03-01T13:37:26;100466.91;;;7.32;100.00
41947;BME280;27638;42.184;24.848;2023-03-01T13:39:55;100470.97;;;7.25;100.00
41947;BME280;27638;42.184;24.848;2023-03-01T13:42:41;100469.78;;;7.29;100.00
41947;BME280;27638;42.184;24.848;2023-03-01T13:48:02;100468.59;;;7.22;100.00
41947;BME280;27638;42.184;24.848;2023-03-01T13:50:35;100466.91;;;7.32;100.00
41947;BME280;27638;42.184;24.848;2023-03-01T13:53:04;100464.28;;;7.32;100.00
41947;BME280;27638;42.184;24.848;2023-03-01T13:55:41;100459.34;;;7.27;100.00
41947;BME280;27638;42.184;24.848;2023-03-01T13:58:18;100463.31;;;7.22;100.00
41947;BME280;27638;42.184;24.848;2023-03-01T14:00:45;100464.88;;;7.13;100.00
41947;BME280;27638;42.184;24.848;2023-03-01T14:03:16;100461.16;;;7.16;100.00
41947;BME280;27638;42.184;24.848;2023-03-01T14:05:56;100468.22;;;7.15;100.00
41947;BME280;27638;42.184;24.848;2023-03-01T14:08:25;100463.47;;;7.09;100.00
41947;BME280;27638;42.184;24.848;2023-03-01T14:11:33;100463.47;;;7.09;100.00
41947;BME280;27638;42.184;24.848;2023-03-01T14:19:39;100468.84;;;7.08;100.00
41947;BME280;27638;42.184;24.848;2023-03-01T14:22:27;100464.78;;;7.03;100.00
41947;BME280;27638;42.184;24.848;2023-03-01T14:25:02;100469.94;;;7.05;100.00
41947;BME280;27638;42.184;24.848;2023-03-01T14:27:36;100472.31;;;7.08;100.00
41947;BME280;27638;42.184;24.848;2023-03-01T14:30:17;100468.63;;;6.99;100.00
41947;BME280;27638;42.184;24.848;2023-03-01T14:35:23;100466.22;;;7.08;100.00